Terminal Aerodrome Forecast
Issued by NWS Medford, OR

Home | Current Version | Previous Version | Text Only | Print | Product List | Glossary On
Versions: 1 2 3 4 5 6 7 8 9 10 11 12 13 14 15 16 17 18 19
000
FTUS46 KMFR 201700
TAFMFR
TAF
KMFR 201740Z 2018/2118 VRB04KT 2SM -RA BR BKN006 BKN025 OVC040
     FM201900 VRB04KT P6SM -SHRA BKN025 OVC060
     FM202200 26007KT P6SM -SHRA SCT035 BKN060
     FM210300 32003KT P6SM VCSH BKN050 BKN100
     FM210800 VRB02KT P6SM SCT025 BKN040 BKN060=

USA.gov is the U.S. government's official web portal to all federal, state and local government web resources and services.